Time;durP1;ratioP1;P1;durP2;ratioP2;P2;SDS_P1;SDS_P2;PMS_P1;PMS_P2;Temp;Humidity;BMP_temperature;BMP_pressure;BME280_temperature;BME280_humidity;BME280_pressure;Samples;Min_cycle;Max_cycle;Signal;HPM_P1;HPM_P2
2023/08/10 00:02:08;;;;;;;6.65;4.53;;;;;;;14.84;100.00;101995.50;5046136;28;20037;-71
2023/08/10 00:04:34;;;;;;;8.02;4.70;;;;;;;14.84;100.00;101997.34;5050226;28;20064;-71
2023/08/10 00:07:00;;;;;;;14.35;4.90;;;;;;;14.86;100.00;101990.03;5050631;28;20064;-71
2023/08/10 00:09:25;;;;;;;10.05;4.70;;;;;;;14.83;100.00;101999.16;5043400;28;20045;-70
2023/08/10 00:11:51;;;;;;;9.48;4.88;;;;;;;14.86;100.00;101999.00;5050079;28;20132;-71
2023/08/10 00:14:17;;;;;;;13.48;4.68;;;;;;;14.83;100.00;102001.00;5038302;28;20825;-71
2023/08/10 00:16:43;;;;;;;8.35;4.50;;;;;;;14.91;100.00;101999.56;5057961;28;20107;-72
2023/08/10 00:19:09;;;;;;;8.57;4.57;;;;;;;14.92;100.00;102006.66;5050612;28;20584;-71
2023/08/10 00:21:34;;;;;;;9.13;5.28;;;;;;;14.90;100.00;102005.00;5043153;28;20128;-72
2023/08/10 00:24:00;;;;;;;12.55;5.60;;;;;;;14.82;100.00;102010.88;5049735;28;20099;-71
2023/08/10 00:26:25;;;;;;;9.10;5.15;;;;;;;14.87;100.00;102005.22;5050021;28;20033;-71
2023/08/10 00:28:51;;;;;;;11.88;5.68;;;;;;;14.83;100.00;102001.84;5048476;28;20036;-71
2023/08/10 00:31:17;;;;;;;8.30;5.68;;;;;;;14.92;100.00;102005.78;5047955;28;20988;-71
2023/08/10 00:33:43;;;;;;;9.45;5.13;;;;;;;14.97;100.00;102007.22;5056609;28;20047;-71
2023/08/10 00:36:09;;;;;;;13.35;5.80;;;;;;;15.03;100.00;102009.50;5049899;28;20107;-71
2023/08/10 00:38:37;;;;;;;10.10;4.82;;;;;;;15.10;100.00;102007.28;5050852;28;20048;-71
2023/08/10 00:41:03;;;;;;;10.98;6.32;;;;;;;15.14;100.00;102010.66;5049462;28;20032;-71
2023/08/10 00:43:29;;;;;;;11.10;5.50;;;;;;;15.14;100.00;102007.97;5049845;28;20033;-71
2023/08/10 00:45:55;;;;;;;7.03;5.35;;;;;;;15.21;100.00;102012.88;5049693;28;20029;-71
2023/08/10 00:48:21;;;;;;;11.00;5.47;;;;;;;15.23;100.00;102007.38;5047531;28;20038;-71
2023/08/10 00:50:51;;;;;;;14.43;6.68;;;;;;;15.27;100.00;102012.47;5082181;27;20040;-71
2023/08/10 00:53:17;;;;;;;13.30;6.05;;;;;;;15.29;100.00;102007.84;5042773;28;20033;-71
2023/08/10 00:55:43;;;;;;;16.27;6.22;;;;;;;15.27;100.00;102009.78;5049963;28;20037;-71
2023/08/10 00:58:11;;;;;;;12.77;6.50;;;;;;;15.25;100.00;102009.00;5048462;28;20045;-71
2023/08/10 01:00:38;;;;;;;13.95;5.63;;;;;;;15.25;100.00;102017.06;5081741;27;20977;-71
2023/08/10 01:03:04;;;;;;;12.15;6.40;;;;;;;15.27;100.00;102015.16;5049207;28;20084;-71
2023/08/10 01:05:37;;;;;;;12.02;6.00;;;;;;;15.31;100.00;102012.25;5043419;28;20046;-71
2023/08/10 01:08:12;;;;;;;11.88;6.35;;;;;;;15.32;100.00;102011.31;5057995;28;20067;-71
2023/08/10 01:11:07;;;;;;;9.68;6.40;;;;;;;15.34;100.00;102023.66;5048948;28;20041;-71
2023/08/10 01:14:08;;;;;;;13.00;6.05;;;;;;;15.35;100.00;102017.31;5049738;28;20036;-71
2023/08/10 01:16:40;;;;;;;12.75;6.15;;;;;;;15.33;100.00;102015.72;5032293;28;20179;-71
2023/08/10 01:19:20;;;;;;;11.07;5.43;;;;;;;15.31;100.00;102017.63;5051589;28;20120;-71
2023/08/10 01:21:59;;;;;;;10.20;6.00;;;;;;;15.34;100.00;102017.44;5047452;28;20111;-71
2023/08/10 01:24:32;;;;;;;12.15;6.00;;;;;;;15.38;100.00;102025.22;5042952;28;20045;-71
2023/08/10 01:26:59;;;;;;;11.32;5.85;;;;;;;15.37;100.00;102025.31;5049839;28;20045;-71
2023/08/10 01:29:25;;;;;;;14.77;5.93;;;;;;;15.42;100.00;102025.88;5043722;28;20032;-71
2023/08/10 01:31:50;;;;;;;8.25;5.50;;;;;;;15.39;100.00;102026.94;5048747;28;20146;-71
2023/08/10 01:34:16;;;;;;;12.63;6.07;;;;;;;15.40;100.00;102034.03;5048735;28;20029;-71
2023/08/10 01:36:41;;;;;;;13.27;6.40;;;;;;;15.34;100.00;102029.03;5049359;28;20037;-71
2023/08/10 01:39:07;;;;;;;11.25;5.68;;;;;;;15.35;100.00;102032.59;5046031;28;20041;-71
2023/08/10 01:41:32;;;;;;;19.25;5.50;;;;;;;15.35;100.00;102035.28;5036987;28;20041;-71
2023/08/10 01:43:58;;;;;;;10.15;5.57;;;;;;;15.38;100.00;102035.09;5054287;28;20033;-71
2023/08/10 01:46:27;;;;;;;16.38;6.10;;;;;;;15.41;100.00;102022.34;5040498;28;20041;-71
2023/08/10 01:48:56;;;;;;;15.93;5.07;;;;;;;15.45;100.00;102031.03;5048956;28;20037;-71
2023/08/10 01:51:27;;;;;;;13.70;4.93;;;;;;;15.42;100.00;102032.13;5047901;28;20054;-71
2023/08/10 01:53:56;;;;;;;16.05;5.57;;;;;;;15.43;100.00;102035.66;5046300;28;20029;-71
2023/08/10 01:56:22;;;;;;;11.85;5.10;;;;;;;15.42;100.00;102037.50;5048347;28;20049;-71
2023/08/10 01:58:48;;;;;;;7.70;4.90;;;;;;;15.41;100.00;102038.47;5047891;28;20037;-71
2023/08/10 02:01:13;;;;;;;11.05;5.65;;;;;;;15.40;100.00;102030.47;5037619;28;20110;-71
2023/08/10 02:03:39;;;;;;;7.13;4.53;;;;;;;15.39;100.00;102037.69;5047931;28;20033;-71
2023/08/10 02:06:05;;;;;;;15.23;5.95;;;;;;;15.35;100.00;102043.34;5048841;28;20128;-71
2023/08/10 02:08:31;;;;;;;10.98;4.90;;;;;;;15.37;100.00;102038.75;5057432;28;20033;-71
2023/08/10 02:10:57;;;;;;;8.40;4.85;;;;;;;15.19;100.00;102040.78;5050912;28;20036;-71
2023/08/10 02:13:24;;;;;;;14.60;5.43;;;;;;;15.12;100.00;102051.06;5044273;28;20045;-71
2023/08/10 02:15:50;;;;;;;9.57;5.13;;;;;;;15.18;100.00;102039.06;5030909;28;20658;-71
2023/08/10 02:18:17;;;;;;;11.40;4.45;;;;;;;15.29;100.00;102039.22;5081041;27;20030;-71
2023/08/10 02:20:42;;;;;;;8.02;4.78;;;;;;;15.27;100.00;102049.22;5057278;28;20037;-71
2023/08/10 02:23:08;;;;;;;11.05;5.05;;;;;;;15.27;100.00;102041.16;5047106;28;20144;-71
2023/08/10 02:25:34;;;;;;;8.73;4.80;;;;;;;15.31;100.00;102036.44;5043032;28;20618;-71
2023/08/10 02:28:00;;;;;;;11.00;4.88;;;;;;;15.32;100.00;102040.88;5048369;28;20064;-71
2023/08/10 02:30:25;;;;;;;12.45;5.10;;;;;;;15.33;100.00;102039.91;5046884;28;20080;-71
2023/08/10 02:32:51;;;;;;;10.88;5.93;;;;;;;15.30;100.00;102035.56;5057909;28;20041;-71
2023/08/10 02:35:16;;;;;;;12.43;5.10;;;;;;;15.37;100.00;102033.38;5063477;28;20038;-70
2023/08/10 02:37:42;;;;;;;12.48;4.97;;;;;;;15.36;100.00;102034.31;5057129;28;20095;-71
2023/08/10 02:40:11;;;;;;;10.98;4.90;;;;;;;15.36;100.00;102037.00;5046840;28;20426;-71
2023/08/10 02:42:37;;;;;;;9.30;4.20;;;;;;;15.37;100.00;102036.06;5048515;28;20068;-71
2023/08/10 02:45:02;;;;;;;8.35;4.65;;;;;;;15.35;100.00;102037.97;5048632;28;20169;-70
2023/08/10 02:47:28;;;;;;;10.65;5.05;;;;;;;15.28;100.00;102032.13;5048982;28;20597;-71
2023/08/10 02:49:53;;;;;;;12.65;5.20;;;;;;;15.26;100.00;102040.31;5046610;28;20478;-71
2023/08/10 02:52:19;;;;;;;9.07;4.90;;;;;;;15.29;100.00;102042.78;5047736;28;20053;-71
2023/08/10 02:54:45;;;;;;;10.15;4.78;;;;;;;15.29;100.00;102036.53;5049923;28;20037;-70
2023/08/10 02:57:11;;;;;;;10.23;4.70;;;;;;;15.26;100.00;102039.41;5052167;28;20095;-71
2023/08/10 02:59:37;;;;;;;7.30;4.60;;;;;;;15.25;100.00;102043.06;5050461;28;20435;-71
2023/08/10 03:02:03;;;;;;;8.68;5.28;;;;;;;15.23;100.00;102043.19;5052759;28;20079;-71
2023/08/10 03:04:29;;;;;;;8.32;4.93;;;;;;;15.20;100.00;102046.03;5042654;28;20045;-71
2023/08/10 03:06:55;;;;;;;7.38;4.93;;;;;;;15.13;100.00;102042.03;5049863;28;20466;-71
2023/08/10 03:09:20;;;;;;;8.20;4.53;;;;;;;15.17;100.00;102046.25;5050059;28;20114;-71
2023/08/10 03:11:46;;;;;;;11.52;4.97;;;;;;;15.14;100.00;102049.13;5083553;27;20046;-71
2023/08/10 03:14:12;;;;;;;7.97;4.88;;;;;;;15.18;100.00;102045.28;5047205;28;20029;-71
2023/08/10 03:16:38;;;;;;;8.93;4.95;;;;;;;15.17;100.00;102046.25;5042087;28;20111;-71
2023/08/10 03:19:03;;;;;;;9.52;5.47;;;;;;;15.20;100.00;102045.19;5040162;28;20119;-71
2023/08/10 03:21:29;;;;;;;8.20;4.75;;;;;;;15.20;100.00;102043.34;5048149;28;20071;-71
2023/08/10 03:23:55;;;;;;;9.90;5.65;;;;;;;15.11;100.00;102043.06;5050985;28;20582;-71
2023/08/10 03:26:21;;;;;;;10.82;5.00;;;;;;;15.15;100.00;102040.09;5066777;28;20087;-71
2023/08/10 03:28:46;;;;;;;15.32;6.60;;;;;;;14.90;100.00;102037.22;5047637;28;20546;-71
2023/08/10 03:31:14;;;;;;;11.25;6.13;;;;;;;14.91;100.00;102037.16;5051239;28;20033;-71
2023/08/10 03:33:41;;;;;;;13.35;5.40;;;;;;;14.87;100.00;102032.94;5050874;28;20039;-71
2023/08/10 03:36:07;;;;;;;8.10;5.72;;;;;;;14.99;100.00;102040.22;5052482;28;20025;-71
2023/08/10 03:38:33;;;;;;;13.68;6.05;;;;;;;15.02;100.00;102039.16;5053389;28;20033;-71
2023/08/10 03:40:59;;;;;;;10.98;5.03;;;;;;;15.01;100.00;102049.06;5052382;28;20039;-70
2023/08/10 03:43:25;;;;;;;12.80;5.72;;;;;;;15.10;100.00;102049.41;5042476;28;20829;-71
2023/08/10 03:45:51;;;;;;;15.00;5.63;;;;;;;15.14;100.00;102048.28;5058419;28;20044;-71
2023/08/10 03:48:16;;;;;;;8.18;5.32;;;;;;;15.15;100.00;102050.00;5083320;28;20035;-71
2023/08/10 03:50:42;;;;;;;8.13;5.28;;;;;;;15.14;100.00;102051.81;5046702;28;20042;-71
2023/08/10 03:53:07;;;;;;;9.27;5.85;;;;;;;15.16;100.00;102054.41;5043303;28;20045;-71
2023/08/10 03:55:33;;;;;;;13.88;5.85;;;;;;;15.15;100.00;102058.91;5042237;28;20044;-71
2023/08/10 03:57:59;;;;;;;11.18;6.65;;;;;;;15.12;100.00;102059.13;5051371;28;20069;-71
2023/08/10 04:00:25;;;;;;;11.38;5.90;;;;;;;15.16;100.00;102052.59;5066698;28;20103;-71
2023/08/10 04:02:50;;;;;;;11.63;5.65;;;;;;;15.16;100.00;102055.28;5055272;28;20478;-69
2023/08/10 04:05:19;;;;;;;10.60;6.22;;;;;;;15.16;100.00;102066.03;5080811;27;20115;-70
2023/08/10 04:07:45;;;;;;;11.95;5.97;;;;;;;15.14;100.00;102059.03;5055837;28;20122;-71
2023/08/10 04:10:10;;;;;;;10.65;5.75;;;;;;;15.20;100.00;102070.22;5057111;28;20040;-71
2023/08/10 04:12:38;;;;;;;10.68;5.68;;;;;;;15.22;100.00;102065.63;5054431;28;20047;-71
2023/08/10 04:15:08;;;;;;;11.82;5.93;;;;;;;15.20;100.00;102059.47;5060431;28;20514;-70
2023/08/10 04:17:34;;;;;;;12.40;6.57;;;;;;;15.02;100.00;102063.34;5060436;28;20092;-71
2023/08/10 04:20:00;;;;;;;16.02;6.47;;;;;;;14.99;100.00;102058.16;5054580;28;20033;-70
2023/08/10 04:22:26;;;;;;;14.07;5.97;;;;;;;15.06;100.00;102067.56;5055297;28;20564;-71
2023/08/10 04:24:52;;;;;;;7.57;5.47;;;;;;;15.05;100.00;102067.66;5056086;28;20184;-71
2023/08/10 04:27:18;;;;;;;17.98;5.85;;;;;;;15.11;100.00;102065.47;5054614;28;20064;-71
2023/08/10 04:29:44;;;;;;;15.30;6.72;;;;;;;15.05;100.00;102068.50;5051069;28;20024;-71
2023/08/10 04:32:10;;;;;;;10.57;5.53;;;;;;;15.05;100.00;102065.81;5052760;28;20122;-71
2023/08/10 04:34:37;;;;;;;14.65;6.18;;;;;;;15.06;100.00;102072.94;5043128;28;20041;-72
2023/08/10 04:37:03;;;;;;;13.50;6.55;;;;;;;15.08;100.00;102067.47;5047679;28;20037;-71
2023/08/10 04:39:29;;;;;;;13.95;6.88;;;;;;;15.07;100.00;102071.97;5053124;28;20702;-70
2023/08/10 04:41:55;;;;;;;12.13;6.20;;;;;;;15.16;100.00;102070.53;5047653;28;20533;-71
2023/08/10 04:44:20;;;;;;;12.75;6.88;;;;;;;15.24;100.00;102076.28;5045027;28;20080;-71
2023/08/10 04:46:46;;;;;;;18.67;7.93;;;;;;;15.37;100.00;102065.63;5047811;28;20565;-71
2023/08/10 04:49:12;;;;;;;11.10;6.82;;;;;;;15.52;100.00;102073.56;5050623;28;20037;-70
2023/08/10 04:51:37;;;;;;;16.77;7.20;;;;;;;15.78;100.00;102071.03;5050885;28;20040;-71
2023/08/10 04:54:03;;;;;;;15.20;6.35;;;;;;;16.11;100.00;102059.84;5050430;28;20037;-71
2023/08/10 04:56:29;;;;;;;14.32;6.55;;;;;;;16.40;100.00;102057.03;5056510;28;20144;-71
2023/08/10 04:58:54;;;;;;;9.00;6.22;;;;;;;16.34;100.00;102050.22;5050336;28;20389;-71
2023/08/10 05:01:20;;;;;;;12.68;6.53;;;;;;;16.20;100.00;102063.75;5048722;28;20044;-71
2023/08/10 05:03:46;;;;;;;17.98;6.82;;;;;;;16.13;100.00;102057.94;5047439;28;20048;-71
2023/08/10 05:06:12;;;;;;;12.20;6.82;;;;;;;16.14;100.00;102065.03;5051479;28;20040;-71
2023/08/10 05:08:38;;;;;;;13.90;7.47;;;;;;;16.16;100.00;102060.41;5047879;28;20061;-71
2023/08/10 05:11:04;;;;;;;16.23;6.85;;;;;;;16.08;100.00;102065.47;5046068;28;20033;-71
2023/08/10 05:13:30;;;;;;;8.40;5.78;;;;;;;16.04;100.00;102072.00;5046028;28;20119;-71
2023/08/10 05:15:56;;;;;;;17.60;7.07;;;;;;;16.01;100.00;102072.19;5044476;28;20174;-71
2023/08/10 05:18:23;;;;;;;23.70;9.80;;;;;;;16.11;100.00;102069.75;5038037;28;20036;-71
2023/08/10 05:20:49;;;;;;;13.60;6.28;;;;;;;16.19;100.00;102075.50;5044659;28;20163;-71
2023/08/10 05:23:15;;;;;;;11.57;6.57;;;;;;;16.16;100.00;102071.16;5040530;28;20037;-71
2023/08/10 05:25:41;;;;;;;15.80;7.47;;;;;;;16.23;100.00;102063.56;5046627;28;20111;-71
2023/08/10 05:28:07;;;;;;;10.80;6.75;;;;;;;16.22;100.00;102069.91;5041437;28;20159;-72
2023/08/10 05:30:33;;;;;;;12.45;6.35;;;;;;;15.98;100.00;102072.41;5048027;28;20042;-71
2023/08/10 05:32:59;;;;;;;17.00;7.22;;;;;;;15.62;100.00;102078.34;5042348;28;20681;-71
2023/08/10 05:35:24;;;;;;;13.32;6.93;;;;;;;15.57;100.00;102078.66;5043592;28;20044;-71
2023/08/10 05:37:50;;;;;;;11.85;6.38;;;;;;;15.83;100.00;102081.50;5047586;28;20859;-71
2023/08/10 05:40:15;;;;;;;16.15;7.97;;;;;;;16.04;100.00;102075.56;5046898;28;20044;-71
2023/08/10 05:42:42;;;;;;;11.48;6.10;;;;;;;16.44;100.00;102066.63;5048095;28;20044;-71
2023/08/10 05:45:08;;;;;;;19.70;7.63;;;;;;;16.66;100.00;102060.59;5048417;28;20119;-71
2023/08/10 05:47:35;;;;;;;13.25;6.78;;;;;;;16.69;100.00;102057.72;5046475;28;20133;-71
2023/08/10 05:50:01;;;;;;;15.50;7.53;;;;;;;17.00;100.00;102054.59;5047232;28;20148;-71
2023/08/10 05:52:27;;;;;;;10.05;7.47;;;;;;;17.03;100.00;102057.09;5056539;28;21016;-71
2023/08/10 05:54:53;;;;;;;17.70;8.23;;;;;;;17.01;100.00;102066.25;5047172;28;20029;-71
2023/08/10 05:57:19;;;;;;;14.13;7.35;;;;;;;17.09;100.00;102059.34;5043905;28;20045;-71
2023/08/10 05:59:45;;;;;;;12.77;6.85;;;;;;;17.24;100.00;102059.22;5047672;28;20124;-71
2023/08/10 06:02:10;;;;;;;16.67;7.45;;;;;;;17.62;100.00;102061.84;5048294;28;20562;-71
2023/08/10 06:04:36;;;;;;;9.45;6.80;;;;;;;18.05;100.00;102062.22;5046851;28;20037;-70
2023/08/10 06:07:01;;;;;;;12.45;7.00;;;;;;;18.35;100.00;102060.84;5048217;28;21007;-71
2023/08/10 06:09:27;;;;;;;13.80;7.00;;;;;;;18.79;100.00;102051.16;5047296;28;20041;-71
2023/08/10 06:11:52;;;;;;;17.80;6.80;;;;;;;19.07;100.00;102057.94;5042552;28;20049;-71
2023/08/10 06:14:19;;;;;;;13.27;7.38;;;;;;;19.30;100.00;102066.91;5046470;28;20033;-71
2023/08/10 06:16:44;;;;;;;12.00;6.88;;;;;;;19.64;100.00;102065.06;5045528;28;20050;-71
2023/08/10 06:19:10;;;;;;;9.82;5.88;;;;;;;19.94;100.00;102063.50;5059153;28;20039;-71
2023/08/10 06:21:36;;;;;;;10.23;6.32;;;;;;;20.14;100.00;102062.69;5045599;28;20988;-71
2023/08/10 06:24:02;;;;;;;9.07;5.60;;;;;;;20.26;99.06;102058.06;5046497;28;20040;-71
2023/08/10 06:26:28;;;;;;;13.90;5.93;;;;;;;20.42;96.73;102059.34;5047357;28;20856;-71
2023/08/10 06:28:53;;;;;;;11.55;4.25;;;;;;;20.33;94.64;102062.84;5048514;28;20116;-71
2023/08/10 06:31:19;;;;;;;9.60;5.20;;;;;;;20.86;93.49;102062.78;5047012;28;20049;-72
2023/08/10 06:33:44;;;;;;;10.35;5.40;;;;;;;21.07;91.87;102059.19;5050295;28;20055;-71
2023/08/10 06:36:11;;;;;;;11.82;5.60;;;;;;;21.08;89.39;102050.03;5050549;28;20048;-71
2023/08/10 06:38:37;;;;;;;16.23;6.20;;;;;;;20.89;88.34;102051.69;5050608;28;20083;-71
2023/08/10 06:41:03;;;;;;;51.53;24.33;;;;;;;21.30;90.30;102046.28;5050459;28;20044;-71
2023/08/10 06:43:29;;;;;;;9.65;4.88;;;;;;;21.16;86.09;102053.81;5051409;28;20036;-72
2023/08/10 06:45:55;;;;;;;7.78;4.15;;;;;;;21.14;85.22;102053.09;5063827;28;20141;-72
2023/08/10 06:48:21;;;;;;;12.52;5.07;;;;;;;21.35;85.08;102049.50;5050103;28;20087;-71
2023/08/10 06:50:46;;;;;;;10.40;4.97;;;;;;;21.36;85.45;102054.78;5051101;28;20117;-71
2023/08/10 06:53:12;;;;;;;11.55;5.10;;;;;;;21.43;85.77;102055.91;5051378;28;20156;-71
2023/08/10 06:55:38;;;;;;;9.52;5.50;;;;;;;21.34;86.65;102061.34;5045406;28;20477;-71
2023/08/10 06:58:04;;;;;;;9.57;4.63;;;;;;;21.30;85.96;102057.16;5049185;28;20099;-71
2023/08/10 07:00:30;;;;;;;7.78;4.75;;;;;;;21.45;85.32;102058.53;5051006;28;20856;-71
2023/08/10 07:02:56;;;;;;;10.35;4.82;;;;;;;21.08;85.21;102058.19;5048946;28;20040;-71
2023/08/10 07:05:23;;;;;;;10.43;4.53;;;;;;;20.96;85.83;102057.44;5049827;28;20045;-71
2023/08/10 07:07:49;;;;;;;6.63;4.03;;;;;;;20.88;86.37;102055.41;5050183;28;20044;-71
2023/08/10 07:10:15;;;;;;;10.73;4.35;;;;;;;21.00;85.26;102056.16;5049454;28;20041;-71
2023/08/10 07:12:42;;;;;;;6.35;3.38;;;;;;;21.33;86.37;102057.75;5050128;28;20993;-71
2023/08/10 07:15:08;;;;;;;6.38;3.95;;;;;;;21.07;84.35;102054.63;5043189;28;21075;-71
2023/08/10 07:17:34;;;;;;;9.70;3.35;;;;;;;21.34;86.20;102062.19;5049209;28;20121;-71
2023/08/10 07:20:00;;;;;;;5.90;3.35;;;;;;;21.67;87.68;102061.00;5049795;28;20048;-70
2023/08/10 07:22:25;;;;;;;7.38;2.75;;;;;;;21.69;82.64;102058.16;5025473;28;20076;-71
2023/08/10 07:24:51;;;;;;;5.75;1.80;;;;;;;22.03;77.70;102058.59;5048869;28;20044;-71
2023/08/10 07:27:17;;;;;;;9.45;2.63;;;;;;;21.92;76.14;102066.91;5049758;28;20203;-71
2023/08/10 07:29:43;;;;;;;7.85;2.80;;;;;;;22.09;80.24;102060.78;5048448;28;20044;-71
2023/08/10 07:32:08;;;;;;;7.25;2.72;;;;;;;22.27;77.15;102054.66;5049412;28;20041;-71
2023/08/10 07:34:35;;;;;;;6.38;2.70;;;;;;;22.28;78.04;102059.94;5048223;28;20141;-71
2023/08/10 07:37:00;;;;;;;4.78;2.67;;;;;;;22.17;77.98;102057.34;5082226;28;21059;-71
2023/08/10 07:39:26;;;;;;;3.88;1.80;;;;;;;22.27;75.00;102055.50;5053093;28;20047;-71
2023/08/10 07:41:52;;;;;;;8.23;2.17;;;;;;;22.29;74.82;102056.22;5065159;28;20029;-71
2023/08/10 07:44:18;;;;;;;4.50;2.08;;;;;;;22.18;73.93;102061.78;5048372;28;20037;-71
2023/08/10 07:46:46;;;;;;;7.43;2.42;;;;;;;22.33;73.04;102060.34;5050345;28;20025;-71
2023/08/10 07:49:14;;;;;;;3.78;1.92;;;;;;;21.87;72.66;102063.75;5046999;28;20039;-71
2023/08/10 07:51:41;;;;;;;6.32;2.03;;;;;;;21.69;71.84;102059.00;5050231;28;20033;-71
2023/08/10 07:54:08;;;;;;;5.50;1.80;;;;;;;22.22;70.61;102061.34;5082231;27;20037;-71
2023/08/10 07:56:34;;;;;;;5.70;1.60;;;;;;;22.49;71.21;102060.63;5047431;28;20380;-71
2023/08/10 07:59:00;;;;;;;5.13;1.80;;;;;;;22.44;67.86;102056.63;5051312;28;20037;-71
2023/08/10 08:01:26;;;;;;;5.53;1.85;;;;;;;22.17;65.93;102060.06;5051552;28;20548;-71
2023/08/10 08:03:51;;;;;;;6.65;1.92;;;;;;;22.45;65.30;102061.94;5048360;28;20029;-71
2023/08/10 08:06:17;;;;;;;6.10;2.00;;;;;;;22.78;67.37;102054.25;5048028;28;20134;-71
2023/08/10 08:08:43;;;;;;;8.45;1.70;;;;;;;22.83;66.66;102062.84;5049282;28;20068;-71
2023/08/10 08:11:08;;;;;;;5.28;2.17;;;;;;;22.87;66.33;102055.25;5045137;28;20033;-70
2023/08/10 08:13:34;;;;;;;3.75;2.05;;;;;;;23.03;64.99;102060.94;5049664;28;20052;-71
2023/08/10 08:16:00;;;;;;;4.53;1.80;;;;;;;23.18;65.66;102055.88;5051232;28;20168;-71
2023/08/10 08:18:44;;;;;;;4.35;1.88;;;;;;;22.77;62.51;102057.16;5058799;28;20079;-71
2023/08/10 08:21:12;;;;;;;5.15;1.70;;;;;;;23.13;67.96;102058.19;5081769;28;20040;-71
2023/08/10 08:23:37;;;;;;;3.20;1.52;;;;;;;23.28;66.91;102062.13;5045668;28;20047;-70
2023/08/10 08:26:04;;;;;;;2.80;1.80;;;;;;;23.52;67.59;102065.16;5050149;28;20045;-71
2023/08/10 08:28:29;;;;;;;3.88;1.65;;;;;;;23.30;65.57;102065.59;5043215;28;20114;-70
2023/08/10 08:30:55;;;;;;;4.75;2.05;;;;;;;23.09;62.47;102063.06;5062767;28;20037;-71
2023/08/10 08:33:20;;;;;;;4.47;1.90;;;;;;;23.37;64.19;102069.41;5044513;28;20828;-71
2023/08/10 08:35:46;;;;;;;6.07;1.85;;;;;;;23.43;62.12;102066.06;5047333;28;20143;-71
2023/08/10 08:38:14;;;;;;;2.63;1.60;;;;;;;22.95;59.44;102064.44;5050088;28;20036;-71
2023/08/10 08:40:40;;;;;;;5.30;1.75;;;;;;;23.20;61.10;102053.88;5050051;28;20079;-71
2023/08/10 08:43:07;;;;;;;8.88;1.70;;;;;;;23.45;64.44;102063.22;5048624;28;20029;-71
2023/08/10 08:45:33;;;;;;;6.45;1.60;;;;;;;23.16;59.68;102063.34;5057678;28;20040;-71
2023/08/10 08:47:59;;;;;;;4.53;1.85;;;;;;;23.17;62.43;102065.91;5045416;28;20080;-71
2023/08/10 08:50:28;;;;;;;4.78;1.50;;;;;;;23.65;65.65;102062.13;5063865;28;20080;-70
2023/08/10 08:52:55;;;;;;;4.10;1.52;;;;;;;23.66;61.36;102066.56;5061740;28;20041;-70
2023/08/10 08:55:20;;;;;;;5.63;2.15;;;;;;;23.45;61.48;102058.63;5050105;28;20145;-71
2023/08/10 08:57:47;;;;;;;3.05;1.65;;;;;;;23.41;58.00;102057.22;5037216;28;20033;-71
2023/08/10 09:00:13;;;;;;;5.80;2.05;;;;;;;23.44;58.73;102056.03;5047892;28;20056;-71
2023/08/10 09:02:39;;;;;;;3.83;1.50;;;;;;;23.42;57.26;102050.75;5042554;28;21429;-71
2023/08/10 09:05:06;;;;;;;5.70;2.50;;;;;;;23.18;59.18;102051.28;5053445;28;20373;-71
2023/08/10 09:07:31;;;;;;;5.53;1.65;;;;;;;23.59;58.20;102048.22;5055176;28;20084;-71
2023/08/10 09:09:57;;;;;;;3.88;1.75;;;;;;;23.33;61.89;102057.09;5045772;28;20040;-71
2023/08/10 09:12:34;;;;;;;4.10;1.60;;;;;;;23.46;59.01;102045.88;5052136;28;20048;-71
2023/08/10 09:15:03;;;;;;;4.93;1.55;;;;;;;23.53;61.10;102046.97;5049578;28;20068;-71
2023/08/10 09:17:30;;;;;;;3.65;1.88;;;;;;;23.48;58.13;102049.28;5049436;28;20540;-71
2023/08/10 09:19:55;;;;;;;2.35;1.30;;;;;;;23.78;57.06;102042.66;5045981;28;20684;-71
2023/08/10 09:22:33;;;;;;;2.17;1.52;;;;;;;24.06;56.89;102043.47;5052345;28;20075;-71
2023/08/10 09:24:58;;;;;;;4.22;1.65;;;;;;;24.26;57.21;102035.97;5046316;28;20037;-72
2023/08/10 09:27:27;;;;;;;3.42;1.85;;;;;;;24.83;55.42;102024.66;5043090;28;20069;-71
2023/08/10 09:30:02;;;;;;;4.43;1.65;;;;;;;24.75;55.53;102039.97;5044841;28;20037;-71
2023/08/10 09:32:28;;;;;;;5.60;2.00;;;;;;;24.73;55.19;102052.03;5045334;28;20045;-71
2023/08/10 09:34:53;;;;;;;3.67;1.70;;;;;;;23.83;54.59;102047.66;5052298;28;20800;-71
2023/08/10 09:37:24;;;;;;;4.47;1.83;;;;;;;23.95;55.62;102046.44;5053282;28;20042;-70
2023/08/10 09:39:57;;;;;;;3.45;1.80;;;;;;;23.91;58.20;102036.84;5052873;28;20104;-71
2023/08/10 09:42:23;;;;;;;5.13;1.98;;;;;;;23.93;59.36;102043.84;5051618;28;20871;-71
2023/08/10 09:44:52;;;;;;;2.35;1.60;;;;;;;23.91;57.44;102037.72;5051803;28;20059;-71
2023/08/10 09:47:19;;;;;;;4.05;1.98;;;;;;;23.87;57.15;102049.06;5052737;28;20584;-71
2023/08/10 09:49:57;;;;;;;2.80;1.85;;;;;;;23.76;57.19;102040.09;5051167;28;20114;-71
2023/08/10 09:52:25;;;;;;;4.13;2.20;;;;;;;23.89;58.29;102049.75;5044309;28;20041;-71
2023/08/10 09:54:53;;;;;;;4.28;1.90;;;;;;;23.83;57.02;102048.50;5044867;28;20101;-71
2023/08/10 09:57:19;;;;;;;2.65;2.03;;;;;;;23.52;58.08;102051.56;5050715;28;20043;-72
2023/08/10 09:59:46;;;;;;;3.80;1.92;;;;;;;23.93;57.51;102051.16;5050035;28;20036;-71
2023/08/10 10:02:12;;;;;;;2.60;1.80;;;;;;;23.79;58.28;102038.94;5047672;28;20047;-71
2023/08/10 10:04:38;;;;;;;5.18;2.13;;;;;;;23.62;58.25;102046.03;5046174;28;20065;-71
2023/08/10 10:07:06;;;;;;;3.55;1.95;;;;;;;23.82;58.48;102040.50;5048597;28;20067;-71
2023/08/10 10:09:34;;;;;;;4.07;2.10;;;;;;;23.84;59.54;102041.19;5049360;28;20032;-71
2023/08/10 10:12:02;;;;;;;7.38;2.67;;;;;;;24.13;58.85;102041.81;5049299;28;21036;-71
2023/08/10 10:14:28;;;;;;;4.05;2.30;;;;;;;23.95;57.23;102044.56;5050085;28;20044;-71
2023/08/10 10:16:53;;;;;;;4.88;2.20;;;;;;;24.03;57.45;102049.22;5040526;28;20398;-71
2023/08/10 10:19:20;;;;;;;8.50;2.83;;;;;;;24.06;62.59;102043.47;5044009;28;20028;-71
2023/08/10 10:21:47;;;;;;;3.70;2.15;;;;;;;24.09;59.88;102040.41;5048584;28;20029;-71
2023/08/10 10:24:17;;;;;;;4.28;2.42;;;;;;;24.04;58.40;102046.34;5049155;28;21139;-71
2023/08/10 10:27:01;;;;;;;9.15;3.00;;;;;;;23.70;57.29;102035.28;5042529;28;20112;-71
2023/08/10 10:29:56;;;;;;;6.15;2.67;;;;;;;23.37;60.03;102030.44;5048767;28;20040;-71
2023/08/10 10:32:23;;;;;;;5.97;2.40;;;;;;;23.72;62.35;102037.84;5049858;28;20049;-71
2023/08/10 10:34:51;;;;;;;6.20;2.97;;;;;;;23.94;60.38;102031.94;5047661;28;20112;-71
2023/08/10 10:37:26;;;;;;;5.60;3.50;;;;;;;23.85;61.70;102037.47;5044276;28;20042;-71
2023/08/10 10:39:52;;;;;;;4.18;2.50;;;;;;;24.19;61.09;102035.72;5048873;28;20116;-71
2023/08/10 10:42:19;;;;;;;5.60;2.33;;;;;;;24.15;59.50;102039.81;5048306;28;20686;-71
2023/08/10 10:45:07;;;;;;;9.43;2.90;;;;;;;24.28;59.65;102037.53;5058605;28;21022;-71
2023/08/10 10:47:46;;;;;;;4.05;2.83;;;;;;;24.09;62.17;102039.56;5048195;28;20025;-71
2023/08/10 10:50:20;;;;;;;7.05;3.30;;;;;;;24.35;62.32;102031.44;5040479;28;20033;-71
2023/08/10 10:52:56;;;;;;;4.43;2.78;;;;;;;24.15;62.45;102036.22;5043799;28;20890;-71
2023/08/10 10:55:24;;;;;;;7.85;2.83;;;;;;;24.26;62.37;102045.00;5042602;28;20030;-71
2023/08/10 10:57:50;;;;;;;6.13;3.15;;;;;;;24.37;60.37;102038.47;5046976;28;20033;-71
2023/08/10 11:00:20;;;;;;;6.07;3.15;;;;;;;24.40;59.34;102032.72;5046634;28;20037;-71
2023/08/10 11:02:46;;;;;;;7.95;3.22;;;;;;;24.34;62.61;102035.19;5045531;28;20134;-71
2023/08/10 11:05:18;;;;;;;6.38;2.95;;;;;;;23.61;62.32;102038.91;5047845;28;20049;-71
2023/08/10 11:07:49;;;;;;;4.28;2.78;;;;;;;24.18;60.71;102034.03;5040510;28;20176;-71
2023/08/10 11:10:19;;;;;;;4.65;2.40;;;;;;;24.52;58.65;102027.84;5041138;28;20108;-71
2023/08/10 11:12:48;;;;;;;5.70;2.80;;;;;;;24.58;59.17;102027.22;5046587;28;20040;-71
2023/08/10 11:15:14;;;;;;;6.35;2.40;;;;;;;24.93;60.28;102026.22;5081490;28;20039;-71
2023/08/10 11:17:42;;;;;;;5.50;2.50;;;;;;;25.35;57.18;102025.41;5050651;28;20044;-71